sensor_id;sensor_type;location;lat;lon;timestamp;pressure;altitude;pressure_sealevel;temperature;humidity
29371;BME280;16357;52.188;7.838;2023-05-19T00:00:56;101974.41;;;12.14;46.43
29371;BME280;16357;52.188;7.838;2023-05-19T00:03:24;101979.19;;;12.11;46.47
29371;BME280;16357;52.188;7.838;2023-05-19T00:05:52;101979.44;;;12.07;46.81
29371;BME280;16357;52.188;7.838;2023-05-19T00:08:22;101977.75;;;12.06;46.52
29371;BME280;16357;52.188;7.838;2023-05-19T00:10:49;101982.53;;;12.03;47.12
29371;BME280;16357;52.188;7.838;2023-05-19T00:13:16;101977.44;;;12.00;47.03
29371;BME280;16357;52.188;7.838;2023-05-19T00:15:43;101972.34;;;11.97;47.38
29371;BME280;16357;52.188;7.838;2023-05-19T00:18:09;101978.84;;;11.94;47.56
29371;BME280;16357;52.188;7.838;2023-05-19T00:20:39;101979.09;;;11.91;47.36
29371;BME280;16357;52.188;7.838;2023-05-19T00:23:06;101981.22;;;11.88;47.78
29371;BME280;16357;52.188;7.838;2023-05-19T00:25:33;101982.31;;;11.85;47.99
29371;BME280;16357;52.188;7.838;2023-05-19T00:27:59;101981.72;;;11.81;47.93
29371;BME280;16357;52.188;7.838;2023-05-19T00:30:28;101977.59;;;11.77;48.05
29371;BME280;16357;52.188;7.838;2023-05-19T00:32:55;101976.16;;;11.73;48.06
29371;BME280;16357;52.188;7.838;2023-05-19T00:35:24;101964.81;;;11.70;47.61
29371;BME280;16357;52.188;7.838;2023-05-19T00:37:51;101963.25;;;11.67;48.03
29371;BME280;16357;52.188;7.838;2023-05-19T00:40:17;101965.22;;;11.65;48.06
29371;BME280;16357;52.188;7.838;2023-05-19T00:42:44;101968.19;;;11.62;48.23
29371;BME280;16357;52.188;7.838;2023-05-19T00:45:10;101959.38;;;11.60;48.29
29371;BME280;16357;52.188;7.838;2023-05-19T00:47:38;101962.34;;;11.57;48.43
29371;BME280;16357;52.188;7.838;2023-05-19T00:50:04;101953.56;;;11.55;48.31
29371;BME280;16357;52.188;7.838;2023-05-19T00:52:31;101959.09;;;11.53;48.45
29371;BME280;16357;52.188;7.838;2023-05-19T00:54:58;101958.47;;;11.50;48.35
29371;BME280;16357;52.188;7.838;2023-05-19T00:57:24;101953.25;;;11.48;48.41
29371;BME280;16357;52.188;7.838;2023-05-19T00:59:52;101963.28;;;11.46;48.55
29371;BME280;16357;52.188;7.838;2023-05-19T01:02:18;101954.59;;;11.42;48.75
29371;BME280;16357;52.188;7.838;2023-05-19T01:04:46;101963.66;;;11.41;48.70
29371;BME280;16357;52.188;7.838;2023-05-19T01:07:13;101964.78;;;11.39;48.96
29371;BME280;16357;52.188;7.838;2023-05-19T01:09:40;101962.34;;;11.36;48.61
29371;BME280;16357;52.188;7.838;2023-05-19T01:12:07;101963.47;;;11.33;48.79
29371;BME280;16357;52.188;7.838;2023-05-19T01:14:34;101957.38;;;11.31;48.95
29371;BME280;16357;52.188;7.838;2023-05-19T01:17:07;101962.00;;;11.29;48.55
29371;BME280;16357;52.188;7.838;2023-05-19T01:23:10;101951.53;;;11.26;48.70
29371;BME280;16357;52.188;7.838;2023-05-19T01:29:01;101950.13;;;11.22;48.80
29371;BME280;16357;52.188;7.838;2023-05-19T01:31:32;101943.28;;;11.18;48.77
29371;BME280;16357;52.188;7.838;2023-05-19T01:34:01;101946.25;;;11.15;48.88
29371;BME280;16357;52.188;7.838;2023-05-19T01:36:31;101940.13;;;11.13;48.69
29371;BME280;16357;52.188;7.838;2023-05-19T01:39:02;101947.47;;;11.11;48.95
29371;BME280;16357;52.188;7.838;2023-05-19T01:41:29;101944.94;;;11.09;48.92
29371;BME280;16357;52.188;7.838;2023-05-19T01:43:57;101942.50;;;11.06;49.10
29371;BME280;16357;52.188;7.838;2023-05-19T01:46:24;101944.47;;;11.04;48.88
29371;BME280;16357;52.188;7.838;2023-05-19T01:48:51;101948.13;;;11.03;49.10
29371;BME280;16357;52.188;7.838;2023-05-19T01:51:17;101947.28;;;11.03;48.83
29371;BME280;16357;52.188;7.838;2023-05-19T01:53:44;101952.78;;;11.01;48.85
29371;BME280;16357;52.188;7.838;2023-05-19T01:56:11;101943.16;;;10.98;48.75
29371;BME280;16357;52.188;7.838;2023-05-19T01:58:47;101951.94;;;11.01;48.56
29371;BME280;16357;52.188;7.838;2023-05-19T02:01:23;101949.47;;;10.97;48.78
29371;BME280;16357;52.188;7.838;2023-05-19T02:10:09;101957.81;;;10.94;48.58
29371;BME280;16357;52.188;7.838;2023-05-19T02:12:37;101959.75;;;10.92;48.57
29371;BME280;16357;52.188;7.838;2023-05-19T02:15:15;101961.75;;;10.90;48.66
29371;BME280;16357;52.188;7.838;2023-05-19T02:17:43;101953.81;;;10.89;48.43
29371;BME280;16357;52.188;7.838;2023-05-19T02:20:14;101954.06;;;10.86;48.91
29371;BME280;16357;52.188;7.838;2023-05-19T02:22:41;101946.28;;;10.83;48.78
29371;BME280;16357;52.188;7.838;2023-05-19T02:25:08;101944.69;;;10.80;49.23
29371;BME280;16357;52.188;7.838;2023-05-19T02:27:36;101958.38;;;10.77;48.92
29371;BME280;16357;52.188;7.838;2023-05-19T02:30:04;101944.22;;;10.75;49.00
29371;BME280;16357;52.188;7.838;2023-05-19T02:32:31;101937.28;;;10.72;48.81
29371;BME280;16357;52.188;7.838;2023-05-19T02:34:58;101943.75;;;10.70;49.05
29371;BME280;16357;52.188;7.838;2023-05-19T02:37:25;101947.41;;;10.69;49.01
29371;BME280;16357;52.188;7.838;2023-05-19T02:39:54;101946.81;;;10.65;49.15
29371;BME280;16357;52.188;7.838;2023-05-19T02:42:22;101944.28;;;10.64;49.05
29371;BME280;16357;52.188;7.838;2023-05-19T02:44:48;101949.88;;;10.61;48.95
29371;BME280;16357;52.188;7.838;2023-05-19T02:47:14;101950.97;;;10.58;49.14
29371;BME280;16357;52.188;7.838;2023-05-19T02:49:41;101953.81;;;10.57;48.85
29371;BME280;16357;52.188;7.838;2023-05-19T02:52:09;101947.72;;;10.54;49.03
29371;BME280;16357;52.188;7.838;2023-05-19T02:54:35;101947.97;;;10.51;49.13
29371;BME280;16357;52.188;7.838;2023-05-19T02:57:02;101941.88;;;10.49;49.13
29371;BME280;16357;52.188;7.838;2023-05-19T02:59:28;101943.81;;;10.47;49.02
29371;BME280;16357;52.188;7.838;2023-05-19T03:01:58;101938.59;;;10.46;48.82
29371;BME280;16357;52.188;7.838;2023-05-19T03:04:25;101937.88;;;10.44;49.05
29371;BME280;16357;52.188;7.838;2023-05-19T03:06:51;101937.13;;;10.42;49.11
29371;BME280;16357;52.188;7.838;2023-05-19T03:09:19;101936.41;;;10.40;49.43
29371;BME280;16357;52.188;7.838;2023-05-19T03:11:46;101942.75;;;10.39;49.33
29371;BME280;16357;52.188;7.838;2023-05-19T03:14:12;101934.81;;;10.37;49.17
29371;BME280;16357;52.188;7.838;2023-05-19T03:16:39;101930.56;;;10.35;49.07
29371;BME280;16357;52.188;7.838;2023-05-19T03:19:07;101929.84;;;10.32;49.44
29371;BME280;16357;52.188;7.838;2023-05-19T03:21:34;101928.13;;;10.31;49.52
29371;BME280;16357;52.188;7.838;2023-05-19T03:24:01;101916.69;;;10.29;49.35
29371;BME280;16357;52.188;7.838;2023-05-19T03:26:27;101924.09;;;10.26;49.57
29371;BME280;16357;52.188;7.838;2023-05-19T03:28:54;101915.31;;;10.24;49.40
29371;BME280;16357;52.188;7.838;2023-05-19T03:31:21;101919.97;;;10.22;49.66
29371;BME280;16357;52.188;7.838;2023-05-19T03:33:47;101922.03;;;10.18;49.82
29371;BME280;16357;52.188;7.838;2023-05-19T03:36:14;101930.22;;;10.17;49.77
29371;BME280;16357;52.188;7.838;2023-05-19T03:38:40;101925.06;;;10.14;49.70
29371;BME280;16357;52.188;7.838;2023-05-19T03:41:06;101929.72;;;10.11;49.74
29371;BME280;16357;52.188;7.838;2023-05-19T03:43:33;101924.47;;;10.10;49.69
29371;BME280;16357;52.188;7.838;2023-05-19T03:45:59;101932.66;;;10.08;49.94
29371;BME280;16357;52.188;7.838;2023-05-19T03:48:27;101931.78;;;10.08;49.69
29371;BME280;16357;52.188;7.838;2023-05-19T03:50:53;101930.09;;;10.07;49.54
29371;BME280;16357;52.188;7.838;2023-05-19T03:53:20;101934.63;;;10.06;49.74
29371;BME280;16357;52.188;7.838;2023-05-19T03:55:47;101932.78;;;10.07;49.91
29371;BME280;16357;52.188;7.838;2023-05-19T03:58:14;101934.47;;;10.08;49.88
29371;BME280;16357;52.188;7.838;2023-05-19T04:00:41;101935.34;;;10.08;49.86
29371;BME280;16357;52.188;7.838;2023-05-19T04:03:07;101935.34;;;10.08;49.98
29371;BME280;16357;52.188;7.838;2023-05-19T04:05:34;101935.22;;;10.10;49.96
29371;BME280;16357;52.188;7.838;2023-05-19T04:08:00;101936.94;;;10.11;49.91
29371;BME280;16357;52.188;7.838;2023-05-19T04:10:27;101933.25;;;10.12;49.98
29371;BME280;16357;52.188;7.838;2023-05-19T04:12:54;101939.47;;;10.13;49.55
29371;BME280;16357;52.188;7.838;2023-05-19T04:15:20;101944.59;;;10.16;49.93
29371;BME280;16357;52.188;7.838;2023-05-19T04:17:46;101943.47;;;10.18;49.65
29371;BME280;16357;52.188;7.838;2023-05-19T04:20:13;101938.00;;;10.20;49.68
29371;BME280;16357;52.188;7.838;2023-05-19T04:22:39;101938.75;;;10.22;49.86
29371;BME280;16357;52.188;7.838;2023-05-19T04:25:07;101938.50;;;10.25;49.84
29371;BME280;16357;52.188;7.838;2023-05-19T04:27:33;101950.84;;;10.27;49.97
29371;BME280;16357;52.188;7.838;2023-05-19T04:30:05;101948.75;;;10.31;49.63
29371;BME280;16357;52.188;7.838;2023-05-19T04:32:31;101940.59;;;10.32;49.57
29371;BME280;16357;52.188;7.838;2023-05-19T04:34:58;101943.84;;;10.36;49.83
29371;BME280;16357;52.188;7.838;2023-05-19T04:37:25;101942.63;;;10.40;49.54
29371;BME280;16357;52.188;7.838;2023-05-19T04:39:52;101944.06;;;10.44;49.58
29371;BME280;16357;52.188;7.838;2023-05-19T04:42:19;101943.81;;;10.47;49.49
29371;BME280;16357;52.188;7.838;2023-05-19T04:44:46;101955.75;;;10.54;49.79
29371;BME280;16357;52.188;7.838;2023-05-19T04:47:14;101941.97;;;10.59;49.38
29371;BME280;16357;52.188;7.838;2023-05-19T04:49:41;101942.56;;;10.63;49.60
29371;BME280;16357;52.188;7.838;2023-05-19T04:52:09;101947.41;;;10.69;49.31
29371;BME280;16357;52.188;7.838;2023-05-19T04:54:37;101939.81;;;10.74;49.48
29371;BME280;16357;52.188;7.838;2023-05-19T04:57:04;101941.28;;;10.78;49.38
29371;BME280;16357;52.188;7.838;2023-05-19T04:59:31;101945.28;;;10.84;49.20
29371;BME280;16357;52.188;7.838;2023-05-19T05:01:57;101947.59;;;10.88;49.03
29371;BME280;16357;52.188;7.838;2023-05-19T05:04:24;101947.06;;;10.94;49.18
29371;BME280;16357;52.188;7.838;2023-05-19T05:06:51;101942.88;;;11.02;49.17
29371;BME280;16357;52.188;7.838;2023-05-19T05:09:17;101946.88;;;11.07;49.21
29371;BME280;16357;52.188;7.838;2023-05-19T05:11:45;101950.03;;;11.12;49.02
29371;BME280;16357;52.188;7.838;2023-05-19T05:14:12;101945.00;;;11.19;49.03
29371;BME280;16357;52.188;7.838;2023-05-19T05:16:38;101953.50;;;11.24;49.11
29371;BME280;16357;52.188;7.838;2023-05-19T05:19:06;101949.47;;;11.30;48.92
29371;BME280;16357;52.188;7.838;2023-05-19T05:21:33;101955.28;;;11.35;48.69
29371;BME280;16357;52.188;7.838;2023-05-19T05:24:00;101953.03;;;11.40;48.59
29371;BME280;16357;52.188;7.838;2023-05-19T05:26:29;101941.78;;;11.46;48.82
29371;BME280;16357;52.188;7.838;2023-05-19T05:28:56;101949.44;;;11.51;48.49
29371;BME280;16357;52.188;7.838;2023-05-19T05:31:22;101941.84;;;11.56;48.48
29371;BME280;16357;52.188;7.838;2023-05-19T05:33:48;101942.25;;;11.61;48.51
29371;BME280;16357;52.188;7.838;2023-05-19T05:36:15;101945.41;;;11.66;48.56
29371;BME280;16357;52.188;7.838;2023-05-19T05:38:41;101942.19;;;11.72;48.14
29371;BME280;16357;52.188;7.838;2023-05-19T05:41:08;101942.66;;;11.77;48.33
29371;BME280;16357;52.188;7.838;2023-05-19T05:43:34;101941.25;;;11.83;48.14
29371;BME280;16357;52.188;7.838;2023-05-19T05:46:01;101938.03;;;11.89;48.10
29371;BME280;16357;52.188;7.838;2023-05-19T05:48:27;101936.66;;;11.95;48.13
29371;BME280;16357;52.188;7.838;2023-05-19T05:50:55;101946.72;;;12.02;48.14
29371;BME280;16357;52.188;7.838;2023-05-19T05:53:24;101938.13;;;12.08;47.80
29371;BME280;16357;52.188;7.838;2023-05-19T05:55:51;101937.56;;;12.15;48.31
29371;BME280;16357;52.188;7.838;2023-05-19T05:58:18;101944.13;;;12.22;48.00
29371;BME280;16357;52.188;7.838;2023-05-19T06:00:46;101941.72;;;12.28;47.75
29371;BME280;16357;52.188;7.838;2023-05-19T06:03:16;101935.50;;;12.38;47.97
29371;BME280;16357;52.188;7.838;2023-05-19T06:05:43;101929.56;;;12.44;47.76
29371;BME280;16357;52.188;7.838;2023-05-19T06:08:09;101935.22;;;12.50;47.60
29371;BME280;16357;52.188;7.838;2023-05-19T06:10:36;101937.94;;;12.60;47.72
29371;BME280;16357;52.188;7.838;2023-05-19T06:13:04;101932.84;;;12.67;47.53
29371;BME280;16357;52.188;7.838;2023-05-19T06:15:30;101938.38;;;12.75;47.39
29371;BME280;16357;52.188;7.838;2023-05-19T06:17:57;101940.38;;;12.83;47.52
29371;BME280;16357;52.188;7.838;2023-05-19T06:20:24;101942.19;;;12.92;47.32
29371;BME280;16357;52.188;7.838;2023-05-19T06:22:50;101946.03;;;12.99;47.28
29371;BME280;16357;52.188;7.838;2023-05-19T06:25:17;101931.97;;;13.05;47.24
29371;BME280;16357;52.188;7.838;2023-05-19T06:27:43;101932.09;;;13.13;47.22
29371;BME280;16357;52.188;7.838;2023-05-19T06:30:10;101935.94;;;13.21;47.15
29371;BME280;16357;52.188;7.838;2023-05-19T06:32:37;101937.81;;;13.30;47.25
29371;BME280;16357;52.188;7.838;2023-05-19T06:35:04;101939.91;;;13.36;47.16
29371;BME280;16357;52.188;7.838;2023-05-19T06:37:30;101933.63;;;13.45;47.06
29371;BME280;16357;52.188;7.838;2023-05-19T06:39:57;101929.38;;;13.52;46.73
29371;BME280;16357;52.188;7.838;2023-05-19T06:42:23;101936.44;;;13.63;46.99
29371;BME280;16357;52.188;7.838;2023-05-19T06:44:51;101934.84;;;13.70;46.80
29371;BME280;16357;52.188;7.838;2023-05-19T06:47:18;101931.25;;;13.79;46.94
29371;BME280;16357;52.188;7.838;2023-05-19T06:49:45;101932.22;;;13.88;46.82
29371;BME280;16357;52.188;7.838;2023-05-19T06:52:11;101933.19;;;13.97;46.66
29371;BME280;16357;52.188;7.838;2023-05-19T06:54:38;101936.81;;;14.05;46.63
29371;BME280;16357;52.188;7.838;2023-05-19T06:57:05;101939.78;;;14.12;46.24
29371;BME280;16357;52.188;7.838;2023-05-19T06:59:31;101939.72;;;14.22;46.54
29371;BME280;16357;52.188;7.838;2023-05-19T07:01:58;101935.41;;;14.29;46.44
29371;BME280;16357;52.188;7.838;2023-05-19T07:04:24;101929.25;;;14.37;46.32
29371;BME280;16357;52.188;7.838;2023-05-19T07:06:51;101934.59;;;14.46;46.99
29371;BME280;16357;52.188;7.838;2023-05-19T07:09:18;101927.44;;;14.55;46.25
29371;BME280;16357;52.188;7.838;2023-05-19T07:11:45;101932.78;;;14.65;45.47
29371;BME280;16357;52.188;7.838;2023-05-19T07:14:12;101930.16;;;14.73;45.98
29371;BME280;16357;52.188;7.838;2023-05-19T07:16:38;101931.09;;;14.82;45.33
29371;BME280;16357;52.188;7.838;2023-05-19T07:19:04;101932.88;;;14.91;45.57
29371;BME280;16357;52.188;7.838;2023-05-19T07:21:31;101937.31;;;15.00;45.62
29371;BME280;16357;52.188;7.838;2023-05-19T07:23:57;101932.84;;;15.09;45.07
29371;BME280;16357;52.188;7.838;2023-05-19T07:26:24;101928.34;;;15.18;45.32
29371;BME280;16357;52.188;7.838;2023-05-19T07:28:51;101931.09;;;15.26;44.88
29371;BME280;16357;52.188;7.838;2023-05-19T07:31:18;101934.56;;;15.36;45.07
29371;BME280;16357;52.188;7.838;2023-05-19T07:33:44;101938.16;;;15.45;44.88
29371;BME280;16357;52.188;7.838;2023-05-19T07:36:11;101928.09;;;15.55;44.50
29371;BME280;16357;52.188;7.838;2023-05-19T07:38:37;101925.28;;;15.65;44.32
29371;BME280;16357;52.188;7.838;2023-05-19T07:41:04;101928.75;;;15.75;44.26
29371;BME280;16357;52.188;7.838;2023-05-19T07:43:30;101925.06;;;15.84;43.62
29371;BME280;16357;52.188;7.838;2023-05-19T07:45:57;101924.94;;;15.94;43.78
29371;BME280;16357;52.188;7.838;2023-05-19T07:48:23;101921.44;;;16.01;43.35
29371;BME280;16357;52.188;7.838;2023-05-19T07:50:51;101920.44;;;16.11;43.70
29371;BME280;16357;52.188;7.838;2023-05-19T07:53:18;101925.88;;;16.19;43.46
29371;BME280;16357;52.188;7.838;2023-05-19T07:55:45;101917.63;;;16.29;43.16
29371;BME280;16357;52.188;7.838;2023-05-19T07:58:12;101916.63;;;16.38;42.61
29371;BME280;16357;52.188;7.838;2023-05-19T08:00:38;101920.03;;;16.48;42.48
29371;BME280;16357;52.188;7.838;2023-05-19T08:03:06;101914.47;;;16.58;42.95
29371;BME280;16357;52.188;7.838;2023-05-19T08:05:34;101915.16;;;16.68;42.52
29371;BME280;16357;52.188;7.838;2023-05-19T08:08:01;101914.00;;;16.79;42.50
29371;BME280;16357;52.188;7.838;2023-05-19T08:10:28;101916.72;;;16.87;42.27
29371;BME280;16357;52.188;7.838;2023-05-19T08:12:54;101908.44;;;16.97;41.87
29371;BME280;16357;52.188;7.838;2023-05-19T08:15:21;101908.25;;;17.06;41.98
29371;BME280;16357;52.188;7.838;2023-05-19T08:17:47;101905.34;;;17.16;42.15
29371;BME280;16357;52.188;7.838;2023-05-19T08:20:14;101912.63;;;17.24;41.38
29371;BME280;16357;52.188;7.838;2023-05-19T08:22:40;101900.75;;;17.33;41.15
29371;BME280;16357;52.188;7.838;2023-05-19T08:25:07;101909.56;;;17.43;40.62
29371;BME280;16357;52.188;7.838;2023-05-19T08:27:33;101898.69;;;17.51;40.84
29371;BME280;16357;52.188;7.838;2023-05-19T08:30:00;101893.91;;;17.62;40.86
29371;BME280;16357;52.188;7.838;2023-05-19T08:32:26;101895.56;;;17.71;40.19
29371;BME280;16357;52.188;7.838;2023-05-19T08:34:53;101891.84;;;17.80;39.43
29371;BME280;16357;52.188;7.838;2023-05-19T08:37:19;101885.34;;;17.89;39.83
29371;BME280;16357;52.188;7.838;2023-05-19T08:39:46;101883.44;;;17.98;38.93
29371;BME280;16357;52.188;7.838;2023-05-19T08:42:12;101877.09;;;18.06;38.13
29371;BME280;16357;52.188;7.838;2023-05-19T08:44:39;101875.38;;;18.13;38.34
29371;BME280;16357;52.188;7.838;2023-05-19T08:47:07;101858.19;;;18.20;38.50
29371;BME280;16357;52.188;7.838;2023-05-19T08:49:45;101869.84;;;18.29;37.88
29371;BME280;16357;52.188;7.838;2023-05-19T08:55:30;101876.38;;;18.43;37.46
29371;BME280;16357;52.188;7.838;2023-05-19T08:58:00;101867.69;;;18.48;37.39
29371;BME280;16357;52.188;7.838;2023-05-19T09:00:28;101867.97;;;18.53;36.70
29371;BME280;16357;52.188;7.838;2023-05-19T09:02:55;101857.41;;;18.58;36.65
29371;BME280;16357;52.188;7.838;2023-05-19T09:05:42;101868.41;;;18.64;36.41
29371;BME280;16357;52.188;7.838;2023-05-19T09:08:09;101859.69;;;18.69;36.72
29371;BME280;16357;52.188;7.838;2023-05-19T09:10:35;101858.19;;;18.75;36.03
29371;BME280;16357;52.188;7.838;2023-05-19T09:13:04;101859.13;;;18.82;36.00
29371;BME280;16357;52.188;7.838;2023-05-19T09:15:31;101861.97;;;18.89;35.90
29371;BME280;16357;52.188;7.838;2023-05-19T09:18:12;101860.84;;;18.98;35.86
29371;BME280;16357;52.188;7.838;2023-05-19T09:20:45;101859.91;;;19.05;36.18
29371;BME280;16357;52.188;7.838;2023-05-19T09:23:13;101855.59;;;19.11;35.75
29371;BME280;16357;52.188;7.838;2023-05-19T09:25:48;101843.63;;;19.20;35.76
29371;BME280;16357;52.188;7.838;2023-05-19T09:28:25;101856.75;;;19.32;35.97
29371;BME280;16357;52.188;7.838;2023-05-19T09:31:07;101846.91;;;19.45;34.78
29371;BME280;16357;52.188;7.838;2023-05-19T09:33:39;101838.06;;;19.58;35.07
29371;BME280;16357;52.188;7.838;2023-05-19T09:36:11;101839.13;;;19.72;34.91
29371;BME280;16357;52.188;7.838;2023-05-19T09:38:38;101837.59;;;19.84;34.80
29371;BME280;16357;52.188;7.838;2023-05-19T09:41:06;101836.94;;;19.97;34.44
29371;BME280;16357;52.188;7.838;2023-05-19T09:43:33;101831.81;;;20.09;33.79
29371;BME280;16357;52.188;7.838;2023-05-19T09:46:07;101825.66;;;20.22;33.71
29371;BME280;16357;52.188;7.838;2023-05-19T09:48:36;101834.75;;;20.29;32.69
29371;BME280;16357;52.188;7.838;2023-05-19T09:51:03;101825.59;;;20.36;32.27
29371;BME280;16357;52.188;7.838;2023-05-19T09:53:33;101820.22;;;20.43;33.22
29371;BME280;16357;52.188;7.838;2023-05-19T09:56:00;101820.47;;;20.48;32.89
29371;BME280;16357;52.188;7.838;2023-05-19T09:58:31;101814.94;;;20.56;33.01
29371;BME280;16357;52.188;7.838;2023-05-19T10:01:00;101821.28;;;20.64;31.75
29371;BME280;16357;52.188;7.838;2023-05-19T10:03:28;101805.81;;;20.71;31.40
29371;BME280;16357;52.188;7.838;2023-05-19T10:05:59;101813.19;;;20.77;31.95
29371;BME280;16357;52.188;7.838;2023-05-19T10:08:27;101802.53;;;20.82;31.68
29371;BME280;16357;52.188;7.838;2023-05-19T10:10:56;101809.09;;;20.88;31.98
29371;BME280;16357;52.188;7.838;2023-05-19T10:13:23;101806.41;;;20.94;32.34
29371;BME280;16357;52.188;7.838;2023-05-19T10:15:49;101804.38;;;21.03;32.38
29371;BME280;16357;52.188;7.838;2023-05-19T10:18:21;101808.63;;;21.12;32.37
29371;BME280;16357;52.188;7.838;2023-05-19T10:20:48;101804.69;;;21.21;31.94
29371;BME280;16357;52.188;7.838;2023-05-19T10:23:15;101802.84;;;21.29;31.11
29371;BME280;16357;52.188;7.838;2023-05-19T10:25:42;101794.91;;;21.34;31.50
29371;BME280;16357;52.188;7.838;2023-05-19T10:28:12;101796.84;;;21.40;31.88
29371;BME280;16357;52.188;7.838;2023-05-19T10:30:43;101800.03;;;21.43;32.22
29371;BME280;16357;52.188;7.838;2023-05-19T10:33:15;101793.34;;;21.46;31.73
29371;BME280;16357;52.188;7.838;2023-05-19T10:38:45;101792.28;;;21.54;31.74
29371;BME280;16357;52.188;7.838;2023-05-19T10:44:09;101796.72;;;21.61;31.30
29371;BME280;16357;52.188;7.838;2023-05-19T10:46:39;101779.31;;;21.62;30.93
29371;BME280;16357;52.188;7.838;2023-05-19T10:49:06;101782.88;;;21.63;30.86
29371;BME280;16357;52.188;7.838;2023-05-19T10:51:33;101767.56;;;21.62;30.86
29371;BME280;16357;52.188;7.838;2023-05-19T10:54:02;101787.94;;;21.59;30.52
29371;BME280;16357;52.188;7.838;2023-05-19T10:56:31;101774.03;;;21.54;30.80
29371;BME280;16357;52.188;7.838;2023-05-19T10:59:02;101765.16;;;21.45;30.10
29371;BME280;16357;52.188;7.838;2023-05-19T11:01:31;101771.25;;;21.41;30.29
29371;BME280;16357;52.188;7.838;2023-05-19T11:04:08;101764.88;;;21.34;30.48
29371;BME280;16357;52.188;7.838;2023-05-19T11:06:37;101770.94;;;21.29;30.37
29371;BME280;16357;52.188;7.838;2023-05-19T11:09:12;101770.53;;;21.32;30.88
29371;BME280;16357;52.188;7.838;2023-05-19T11:11:49;101774.38;;;21.38;31.09
29371;BME280;16357;52.188;7.838;2023-05-19T11:14:22;101775.06;;;21.46;30.70
29371;BME280;16357;52.188;7.838;2023-05-19T11:16:50;101782.84;;;21.56;30.87
29371;BME280;16357;52.188;7.838;2023-05-19T11:19:28;101777.00;;;21.66;30.98
29371;BME280;16357;52.188;7.838;2023-05-19T11:21:55;101779.56;;;21.74;30.69
29371;BME280;16357;52.188;7.838;2023-05-19T11:26:59;101761.53;;;21.93;30.75
29371;BME280;16357;52.188;7.838;2023-05-19T11:29:25;101760.31;;;22.02;30.32
29371;BME280;16357;52.188;7.838;2023-05-19T11:31:53;101761.16;;;22.09;30.03
29371;BME280;16357;52.188;7.838;2023-05-19T11:34:19;101767.69;;;22.15;29.76
29371;BME280;16357;52.188;7.838;2023-05-19T11:36:46;101766.69;;;22.23;30.01
29371;BME280;16357;52.188;7.838;2023-05-19T11:39:13;101759.53;;;22.35;30.56
29371;BME280;16357;52.188;7.838;2023-05-19T11:41:40;101761.84;;;22.51;31.01
29371;BME280;16357;52.188;7.838;2023-05-19T11:44:10;101763.09;;;22.69;30.00
29371;BME280;16357;52.188;7.838;2023-05-19T11:46:37;101758.88;;;22.79;29.61
29371;BME280;16357;52.188;7.838;2023-05-19T11:49:04;101760.78;;;22.86;29.46
29371;BME280;16357;52.188;7.838;2023-05-19T11:51:31;101757.81;;;22.87;29.11
29371;BME280;16357;52.188;7.838;2023-05-19T11:53:59;101764.53;;;22.85;29.15
29371;BME280;16357;52.188;7.838;2023-05-19T11:56:26;101747.53;;;22.76;28.66
29371;BME280;16357;52.188;7.838;2023-05-19T11:58:58;101763.09;;;22.69;28.59
29371;BME280;16357;52.188;7.838;2023-05-19T12:01:24;101755.09;;;22.61;29.05
29371;BME280;16357;52.188;7.838;2023-05-19T12:03:52;101754.06;;;22.55;28.99
29371;BME280;16357;52.188;7.838;2023-05-19T12:06:19;101756.16;;;22.53;28.80
29371;BME280;16357;52.188;7.838;2023-05-19T12:08:45;101750.69;;;22.53;28.64
29371;BME280;16357;52.188;7.838;2023-05-19T12:11:12;101747.13;;;22.52;28.78
29371;BME280;16357;52.188;7.838;2023-05-19T12:13:39;101748.38;;;22.50;28.60
29371;BME280;16357;52.188;7.838;2023-05-19T12:16:07;101738.91;;;22.46;28.80
29371;BME280;16357;52.188;7.838;2023-05-19T12:18:37;101742.06;;;22.43;28.69
29371;BME280;16357;52.188;7.838;2023-05-19T12:21:05;101730.72;;;22.39;28.58
29371;BME280;16357;52.188;7.838;2023-05-19T12:23:32;101736.38;;;22.38;28.97
29371;BME280;16357;52.188;7.838;2023-05-19T12:25:59;101739.75;;;22.40;29.14
29371;BME280;16357;52.188;7.838;2023-05-19T12:28:29;101732.81;;;22.44;29.30
29371;BME280;16357;52.188;7.838;2023-05-19T12:30:56;101736.59;;;22.49;29.85
29371;BME280;16357;52.188;7.838;2023-05-19T12:33:23;101739.13;;;22.57;28.71
29371;BME280;16357;52.188;7.838;2023-05-19T12:35:50;101733.44;;;22.66;28.34
29371;BME280;16357;52.188;7.838;2023-05-19T12:38:18;101730.69;;;22.72;28.07
29371;BME280;16357;52.188;7.838;2023-05-19T12:40:44;101720.34;;;22.74;27.77
29371;BME280;16357;52.188;7.838;2023-05-19T12:43:24;101727.31;;;22.77;28.25
29371;BME280;16357;52.188;7.838;2023-05-19T12:45:50;101716.59;;;22.75;28.25
29371;BME280;16357;52.188;7.838;2023-05-19T12:48:20;101717.44;;;22.76;28.61
29371;BME280;16357;52.188;7.838;2023-05-19T12:50:50;101717.41;;;22.83;28.78
29371;BME280;16357;52.188;7.838;2023-05-19T12:53:18;101714.47;;;22.91;28.56
29371;BME280;16357;52.188;7.838;2023-05-19T12:55:44;101708.97;;;23.04;28.32
29371;BME280;16357;52.188;7.838;2023-05-19T12:58:11;101718.19;;;23.16;27.58
29371;BME280;16357;52.188;7.838;2023-05-19T13:00:44;101712.66;;;23.30;27.93
29371;BME280;16357;52.188;7.838;2023-05-19T13:03:18;101715.13;;;23.38;27.75
29371;BME280;16357;52.188;7.838;2023-05-19T13:05:46;101723.34;;;23.44;27.60
29371;BME280;16357;52.188;7.838;2023-05-19T13:08:15;101707.53;;;23.47;27.52
29371;BME280;16357;52.188;7.838;2023-05-19T13:10:44;101712.78;;;23.48;27.47
29371;BME280;16357;52.188;7.838;2023-05-19T13:13:11;101695.28;;;23.49;27.36
29371;BME280;16357;52.188;7.838;2023-05-19T13:15:43;101694.41;;;23.55;27.12
29371;BME280;16357;52.188;7.838;2023-05-19T13:18:11;101684.47;;;23.61;26.93